Time;durP1;ratioP1;P1;durP2;ratioP2;P2;SDS_P1;SDS_P2;PMS_P1;PMS_P2;Temp;Humidity;BMP_temperature;BMP_pressure;BME280_temperature;BME280_humidity;BME280_pressure;Samples;Min_cycle;Max_cycle;Signal;HPM_P1;HPM_P2
2023/06/11 00:00:54;;;;;;;8.80;7.03;;;;;;;24.99;39.00;101420.03;4990627;28;123740;-63
2023/06/11 00:03:21;;;;;;;7.80;6.75;;;;;;;24.93;38.97;101415.22;4988759;28;114289;-64
2023/06/11 00:05:49;;;;;;;9.85;6.88;;;;;;;24.90;39.02;101411.94;4988249;28;114749;-63
2023/06/11 00:08:16;;;;;;;11.13;7.18;;;;;;;24.86;39.38;101409.56;4987346;28;124166;-64
2023/06/11 00:10:44;;;;;;;11.23;7.47;;;;;;;24.82;39.21;101412.69;4974883;28;123771;-63
2023/06/11 00:13:11;;;;;;;9.82;6.93;;;;;;;24.79;39.51;101407.56;4990248;28;114328;-63
2023/06/11 00:15:38;;;;;;;14.27;7.40;;;;;;;24.74;39.43;101404.47;4981779;28;114141;-62
2023/06/11 00:18:06;;;;;;;10.30;7.28;;;;;;;24.70;39.62;101408.47;4987618;28;124538;-63
2023/06/11 00:20:41;;;;;;;10.13;7.28;;;;;;;24.66;39.70;101413.34;4973222;28;123311;-63
2023/06/11 00:23:09;;;;;;;9.57;7.90;;;;;;;24.61;39.67;101421.88;4989743;28;114109;-62
2023/06/11 00:25:36;;;;;;;10.65;7.60;;;;;;;24.55;39.88;101414.34;4987394;28;115100;-62
2023/06/11 00:28:03;;;;;;;12.43;7.43;;;;;;;24.51;39.98;101410.22;4987663;28;124493;-63
2023/06/11 00:30:31;;;;;;;10.98;7.95;;;;;;;24.45;40.09;101399.97;4989311;28;123113;-62
2023/06/11 00:32:59;;;;;;;11.32;8.07;;;;;;;24.40;40.08;101408.50;4987858;28;115289;-63
2023/06/11 00:35:27;;;;;;;9.40;7.40;;;;;;;24.37;40.22;101405.25;4987253;28;114935;-62
2023/06/11 00:37:55;;;;;;;8.70;7.57;;;;;;;24.33;40.47;101406.53;4989149;28;123282;-62
2023/06/11 00:40:22;;;;;;;8.77;7.45;;;;;;;24.28;40.44;101410.53;4992818;28;123988;-62
2023/06/11 00:42:50;;;;;;;10.00;7.63;;;;;;;24.25;40.58;101408.13;4993138;28;114830;-62
2023/06/11 00:45:18;;;;;;;10.05;7.80;;;;;;;24.21;40.89;101409.41;4992333;28;113130;-63
2023/06/11 00:47:45;;;;;;;9.57;7.90;;;;;;;24.18;40.97;101409.69;4977394;28;124347;-62
2023/06/11 00:50:12;;;;;;;10.65;7.82;;;;;;;24.15;41.13;101415.41;4993186;28;123803;-62
2023/06/11 00:52:40;;;;;;;11.43;8.07;;;;;;;24.11;41.15;101408.56;4992044;28;113275;-62
2023/06/11 00:55:11;;;;;;;10.75;8.25;;;;;;;24.09;41.30;101413.25;4991884;28;112948;-62
2023/06/11 00:57:42;;;;;;;10.32;7.90;;;;;;;24.05;41.38;101411.84;4990156;28;124068;-62
2023/06/11 01:00:12;;;;;;;10.40;7.57;;;;;;;24.02;41.55;101414.84;4992521;28;123267;-62
2023/06/11 01:02:49;;;;;;;11.13;7.82;;;;;;;24.00;41.42;101416.84;4990582;28;113389;-62
2023/06/11 01:05:21;;;;;;;9.38;8.35;;;;;;;23.95;41.62;101413.69;4992355;28;114073;-63
2023/06/11 01:07:52;;;;;;;11.32;7.93;;;;;;;23.92;41.84;101419.38;4992044;28;123810;-62
2023/06/11 01:10:26;;;;;;;8.43;7.47;;;;;;;23.86;42.00;101410.84;4991857;28;127387;-62
2023/06/11 01:12:55;;;;;;;9.60;8.23;;;;;;;23.83;42.10;101421.09;4992542;28;113328;-63
2023/06/11 01:15:22;;;;;;;12.52;8.40;;;;;;;23.79;42.22;101414.25;4981052;28;112944;-63
2023/06/11 01:18:02;;;;;;;10.05;8.30;;;;;;;23.77;42.44;101413.50;4992471;28;123304;-64
2023/06/11 01:20:39;;;;;;;10.75;8.10;;;;;;;23.74;42.42;101425.47;4989429;28;124656;-63
2023/06/11 01:23:41;;;;;;;9.73;8.15;;;;;;;23.72;42.39;101413.94;4985976;28;114343;-63
2023/06/11 01:26:15;;;;;;;10.57;8.27;;;;;;;23.69;42.43;101419.63;4989103;28;114541;-63
2023/06/11 01:28:46;;;;;;;11.60;8.38;;;;;;;23.67;42.71;101422.47;4992148;28;123166;-63
2023/06/11 01:31:15;;;;;;;9.95;8.43;;;;;;;23.65;42.81;101412.78;4990106;28;124702;-63
2023/06/11 01:33:43;;;;;;;10.43;8.05;;;;;;;23.60;42.79;101421.34;4991898;28;113448;-63
2023/06/11 01:36:14;;;;;;;10.60;8.68;;;;;;;23.57;42.92;101416.19;4992458;28;114035;-62
2023/06/11 01:38:42;;;;;;;10.15;9.13;;;;;;;23.55;42.96;101422.75;4992126;28;123464;-62
2023/06/11 01:41:30;;;;;;;10.55;8.65;;;;;;;23.52;43.17;101419.31;4992746;28;125098;-62
2023/06/11 01:43:58;;;;;;;10.10;8.50;;;;;;;23.51;43.32;101423.03;4990963;28;113764;-62
2023/06/11 01:46:26;;;;;;;12.57;8.50;;;;;;;23.51;43.31;101428.44;4991213;28;113716;-62
2023/06/11 01:48:54;;;;;;;10.38;9.25;;;;;;;23.49;43.30;101425.00;4991139;28;123266;-62
2023/06/11 01:51:21;;;;;;;11.50;9.07;;;;;;;23.47;43.41;101421.59;4991115;28;123859;-62
2023/06/11 01:53:49;;;;;;;11.05;8.90;;;;;;;23.44;43.57;101419.16;4990614;28;113937;-62
2023/06/11 01:56:16;;;;;;;10.68;8.80;;;;;;;23.40;43.57;101414.19;4992002;28;113022;-62
2023/06/11 01:58:47;;;;;;;12.05;8.70;;;;;;;23.36;43.74;101418.13;4988450;28;123095;-62
2023/06/11 02:01:14;;;;;;;11.85;8.93;;;;;;;23.33;43.79;101411.16;4990721;28;123344;-62
2023/06/11 02:03:42;;;;;;;12.52;9.65;;;;;;;23.31;43.89;101410.44;4988282;28;113892;-62
2023/06/11 02:06:10;;;;;;;10.48;8.90;;;;;;;23.28;43.90;101408.88;4991738;28;112920;-62
2023/06/11 02:08:37;;;;;;;13.48;9.10;;;;;;;23.27;44.04;101411.72;4991896;28;123718;-62
2023/06/11 02:11:05;;;;;;;13.15;9.32;;;;;;;23.24;44.16;101414.69;4987656;28;122819;-62
2023/06/11 02:13:32;;;;;;;10.73;9.63;;;;;;;23.23;44.23;101413.84;4966760;28;114247;-62
2023/06/11 02:15:59;;;;;;;11.05;9.43;;;;;;;23.20;44.26;101418.66;4974615;28;114032;-63
2023/06/11 02:18:27;;;;;;;12.10;9.02;;;;;;;23.17;44.38;101416.22;4991636;28;123065;-62
2023/06/11 02:20:54;;;;;;;10.77;9.60;;;;;;;23.17;44.58;101418.94;4991131;28;122959;-63
2023/06/11 02:23:21;;;;;;;11.68;9.32;;;;;;;23.16;44.59;101417.25;4991290;28;113618;-62
2023/06/11 02:25:48;;;;;;;10.10;9.05;;;;;;;23.13;44.58;101413.81;4987700;28;113062;-62
2023/06/11 02:28:16;;;;;;;11.50;9.30;;;;;;;23.09;44.68;101407.00;4989083;28;124109;-63
2023/06/11 02:30:44;;;;;;;11.60;9.60;;;;;;;23.07;44.67;101408.09;4988773;28;124680;-63
2023/06/11 02:33:11;;;;;;;11.15;9.35;;;;;;;23.03;44.82;101407.50;4990499;28;113441;-63
2023/06/11 02:35:38;;;;;;;11.40;9.30;;;;;;;23.01;44.89;101412.16;4990766;28;113284;-62
2023/06/11 02:38:06;;;;;;;11.30;9.63;;;;;;;22.98;44.97;101417.88;4990595;28;123041;-63
2023/06/11 02:40:33;;;;;;;11.48;9.57;;;;;;;22.98;44.83;101425.09;4989378;28;124007;-63
2023/06/11 02:43:00;;;;;;;12.15;9.65;;;;;;;22.97;44.97;101424.25;4989368;28;114532;-63
2023/06/11 02:45:28;;;;;;;11.63;9.50;;;;;;;22.96;44.99;101422.50;4990195;28;113458;-62
2023/06/11 02:47:55;;;;;;;10.70;9.60;;;;;;;22.94;45.12;101419.09;4990068;28;122909;-63
2023/06/11 02:50:22;;;;;;;12.48;9.43;;;;;;;22.93;45.05;101417.41;4989347;28;124438;-62
2023/06/11 02:52:50;;;;;;;12.90;9.85;;;;;;;22.91;45.12;101420.25;4984280;28;114563;-62
2023/06/11 02:55:17;;;;;;;13.18;10.30;;;;;;;22.89;45.22;101421.38;4983255;28;113701;-62
2023/06/11 02:57:44;;;;;;;15.18;11.00;;;;;;;22.85;45.29;101419.91;4988299;28;124644;-62
2023/06/11 03:00:12;;;;;;;13.65;11.10;;;;;;;22.80;45.49;101422.19;4987608;28;123985;-62
2023/06/11 03:02:39;;;;;;;14.25;11.05;;;;;;;22.76;45.59;101418.03;4990142;28;114456;-63
2023/06/11 03:05:07;;;;;;;11.32;9.93;;;;;;;22.72;45.55;101421.00;4989927;28;114125;-63
2023/06/11 03:07:36;;;;;;;13.07;10.40;;;;;;;22.68;45.58;101418.72;4989479;28;123458;-63
2023/06/11 03:10:05;;;;;;;13.73;11.07;;;;;;;22.65;45.76;101419.81;4989876;28;123019;-63
2023/06/11 03:12:32;;;;;;;13.40;10.68;;;;;;;22.62;45.74;101425.50;4990608;28;114621;-62
2023/06/11 03:14:59;;;;;;;13.70;10.27;;;;;;;22.59;45.93;101424.91;4989867;28;113923;-63
2023/06/11 03:17:27;;;;;;;15.20;10.88;;;;;;;22.55;45.97;101424.31;4989704;28;123673;-63
2023/06/11 03:19:54;;;;;;;12.20;10.52;;;;;;;22.53;46.05;101429.00;4989715;28;122989;-63
2023/06/11 03:22:22;;;;;;;11.27;9.85;;;;;;;22.50;46.28;101432.81;4989769;28;113443;-63
2023/06/11 03:24:49;;;;;;;11.93;10.65;;;;;;;22.47;46.31;101426.81;4989429;28;113388;-62
2023/06/11 03:27:26;;;;;;;13.45;10.80;;;;;;;22.43;46.37;101433.47;4989494;28;123072;-62
2023/06/11 03:29:54;;;;;;;11.98;10.55;;;;;;;22.42;46.29;101434.47;4988823;28;123978;-62
2023/06/11 03:32:22;;;;;;;12.75;9.90;;;;;;;22.39;46.45;101434.72;4990584;28;113391;-62
2023/06/11 03:34:51;;;;;;;13.77;10.75;;;;;;;22.38;46.48;101438.41;4989491;28;113674;-66
2023/06/11 03:37:20;;;;;;;12.57;10.75;;;;;;;22.38;46.37;101433.00;4990429;28;123446;-63
2023/06/11 03:39:51;;;;;;;13.80;11.00;;;;;;;22.37;46.45;101436.69;4990215;28;122869;-63
2023/06/11 03:42:18;;;;;;;13.27;11.15;;;;;;;22.35;46.62;101440.38;4990541;28;114030;-63
2023/06/11 03:44:46;;;;;;;15.13;11.40;;;;;;;22.34;46.71;101438.69;4989487;28;113262;-63
2023/06/11 03:47:15;;;;;;;13.02;11.57;;;;;;;22.32;46.46;101443.34;4990083;28;123243;-63
2023/06/11 03:49:43;;;;;;;14.05;10.95;;;;;;;22.30;46.96;101439.06;4989762;28;123195;-63
2023/06/11 03:52:11;;;;;;;13.60;10.75;;;;;;;22.28;46.81;101439.22;4989441;28;114681;-64
2023/06/11 03:54:38;;;;;;;12.35;10.85;;;;;;;22.25;46.99;101444.84;4990146;28;115095;-63
2023/06/11 03:57:06;;;;;;;12.05;10.75;;;;;;;22.24;47.04;101440.41;4989472;28;123157;-64
2023/06/11 03:59:33;;;;;;;12.55;10.95;;;;;;;22.24;47.04;101437.69;4989956;28;123085;-62
2023/06/11 04:02:00;;;;;;;11.43;10.20;;;;;;;22.26;47.17;101441.16;4990273;28;113170;-62
2023/06/11 04:04:29;;;;;;;14.40;10.80;;;;;;;22.26;47.18;101441.16;4989547;28;113629;-62
2023/06/11 04:06:56;;;;;;;15.88;10.95;;;;;;;22.27;47.25;101448.28;4988895;28;123208;-62
2023/06/11 04:09:24;;;;;;;13.63;10.75;;;;;;;22.27;47.31;101447.44;4979326;28;123150;-62
2023/06/11 04:11:51;;;;;;;11.35;9.75;;;;;;;22.24;47.33;101443.09;4989041;28;113629;-62
2023/06/11 04:14:18;;;;;;;11.93;10.55;;;;;;;22.24;47.26;101443.09;4988811;28;113236;-62
2023/06/11 04:16:46;;;;;;;13.32;10.15;;;;;;;22.25;47.44;101439.47;4989451;28;123152;-62
2023/06/11 04:19:14;;;;;;;12.32;10.55;;;;;;;22.25;47.50;101439.47;4987567;28;123638;-63
2023/06/11 04:21:42;;;;;;;11.80;10.30;;;;;;;22.25;47.66;101450.25;4989764;28;113655;-62
2023/06/11 04:24:09;;;;;;;14.45;10.00;;;;;;;22.26;47.64;101446.56;4989020;28;113502;-63
2023/06/11 04:26:37;;;;;;;11.88;10.23;;;;;;;22.26;47.77;101446.56;4987427;28;124274;-61
2023/06/11 04:29:05;;;;;;;11.63;10.20;;;;;;;22.28;47.68;101450.00;4972937;28;123542;-62
2023/06/11 04:31:32;;;;;;;13.25;10.73;;;;;;;22.28;47.68;101450.00;4987516;28;114425;-63
2023/06/11 04:34:03;;;;;;;12.23;10.43;;;;;;;22.29;47.75;101449.00;4990427;28;113895;-63
2023/06/11 04:36:33;;;;;;;13.38;10.18;;;;;;;22.29;47.74;101451.69;4989170;28;123246;-63
2023/06/11 04:39:01;;;;;;;12.80;10.27;;;;;;;22.32;47.87;101440.66;4989561;28;123426;-63
2023/06/11 04:41:31;;;;;;;12.93;10.63;;;;;;;22.33;47.93;101447.75;4985813;28;115635;-63
2023/06/11 04:44:00;;;;;;;10.98;9.95;;;;;;;22.37;48.13;101447.50;4986951;28;115360;-63
2023/06/11 04:46:32;;;;;;;12.73;10.32;;;;;;;22.42;48.24;101447.97;4982942;28;123590;-62
2023/06/11 04:49:03;;;;;;;12.20;9.52;;;;;;;22.49;48.19;101451.81;4983367;28;122219;-63
2023/06/11 04:51:32;;;;;;;11.18;9.60;;;;;;;22.59;48.22;101452.75;4974916;28;114025;-63
2023/06/11 04:54:07;;;;;;;13.00;9.43;;;;;;;22.69;48.29;101452.81;4987886;28;113553;-63
2023/06/11 04:56:36;;;;;;;14.45;9.63;;;;;;;22.84;48.26;101439.81;4988883;28;123791;-64
2023/06/11 04:59:06;;;;;;;11.45;9.82;;;;;;;22.97;48.14;101451.25;4989006;28;122941;-62
2023/06/11 05:01:33;;;;;;;10.55;9.25;;;;;;;23.10;47.92;101449.22;4978991;28;113430;-62
2023/06/11 05:04:02;;;;;;;10.52;9.43;;;;;;;23.24;47.83;101452.53;4971158;28;113095;-63
2023/06/11 05:06:30;;;;;;;10.32;9.25;;;;;;;23.35;47.71;101449.72;4986525;28;124407;-63
2023/06/11 05:08:58;;;;;;;12.45;9.63;;;;;;;23.44;47.43;101446.19;4988812;28;123950;-63
2023/06/11 05:11:26;;;;;;;11.93;9.27;;;;;;;23.54;47.44;101448.06;4989932;28;114632;-63
2023/06/11 05:13:54;;;;;;;11.27;9.27;;;;;;;23.64;47.27;101454.34;4988100;28;113144;-63
2023/06/11 05:16:22;;;;;;;11.85;9.50;;;;;;;23.72;46.92;101443.69;4986645;28;125028;-63
2023/06/11 05:18:50;;;;;;;13.15;9.43;;;;;;;23.78;47.19;101451.25;4988250;28;123077;-63
2023/06/11 05:21:17;;;;;;;13.18;10.25;;;;;;;23.83;46.96;101454.41;4987390;28;114659;-63
2023/06/11 05:23:45;;;;;;;12.57;9.70;;;;;;;23.92;46.86;101452.69;4989861;28;114195;-63
2023/06/11 05:26:13;;;;;;;13.18;10.27;;;;;;;24.01;46.71;101451.84;4982329;28;123196;-64
2023/06/11 05:28:44;;;;;;;10.30;9.20;;;;;;;24.08;46.69;101449.44;4991893;28;123656;-64
2023/06/11 05:31:12;;;;;;;12.35;9.40;;;;;;;24.15;46.27;101458.72;4991757;28;114806;-64
2023/06/11 05:33:44;;;;;;;12.10;9.65;;;;;;;24.20;46.12;101451.00;4991750;28;115095;-64
2023/06/11 05:36:11;;;;;;;11.02;9.32;;;;;;;24.27;46.22;101452.13;4991669;28;123223;-64
2023/06/11 05:38:39;;;;;;;16.63;9.90;;;;;;;24.36;46.19;101457.69;4989097;28;123926;-64
2023/06/11 05:41:07;;;;;;;13.73;9.63;;;;;;;24.45;46.16;101459.53;4992149;28;113900;-64
2023/06/11 05:43:35;;;;;;;13.80;9.90;;;;;;;24.53;46.00;101454.28;4991430;28;113220;-64
2023/06/11 05:46:03;;;;;;;12.23;9.18;;;;;;;24.59;45.94;101450.97;4991929;28;123944;-63
2023/06/11 05:48:31;;;;;;;10.85;9.20;;;;;;;24.67;46.06;101450.25;4981813;28;123099;-64
2023/06/11 05:50:58;;;;;;;10.48;9.23;;;;;;;24.74;45.51;101453.25;4990482;28;113466;-64
2023/06/11 05:53:27;;;;;;;10.20;9.00;;;;;;;24.80;45.49;101449.94;4991193;28;113360;-64
2023/06/11 05:55:56;;;;;;;10.38;8.90;;;;;;;24.87;45.16;101453.75;4990264;28;123794;-64
2023/06/11 05:58:24;;;;;;;11.43;9.07;;;;;;;24.94;45.06;101449.47;4985953;28;123309;-64
2023/06/11 06:00:51;;;;;;;14.70;9.65;;;;;;;25.02;44.83;101457.69;4974127;28;113218;-65
2023/06/11 06:03:19;;;;;;;15.40;8.73;;;;;;;25.12;45.03;101457.66;4991033;28;114448;-64
2023/06/11 06:05:47;;;;;;;12.07;9.10;;;;;;;25.21;44.71;101456.75;4990708;28;123729;-64
2023/06/11 06:08:16;;;;;;;12.13;9.18;;;;;;;25.31;44.80;101467.59;4990613;28;122945;-64
2023/06/11 06:10:43;;;;;;;14.02;9.40;;;;;;;25.42;44.81;101470.09;4989377;28;112999;-64
2023/06/11 06:13:10;;;;;;;14.75;9.73;;;;;;;25.54;44.40;101467.16;4992236;28;112510;-63
2023/06/11 06:15:41;;;;;;;12.77;9.98;;;;;;;25.63;44.10;101472.53;4991428;28;124287;-63
2023/06/11 06:18:09;;;;;;;10.75;8.95;;;;;;;25.73;44.35;101472.50;4990747;28;124006;-64
2023/06/11 06:20:41;;;;;;;11.20;9.40;;;;;;;25.86;44.48;101477.53;4990770;28;114179;-64
2023/06/11 06:23:10;;;;;;;9.65;8.60;;;;;;;25.98;44.04;101479.06;4990645;28;114470;-65
2023/06/11 06:25:41;;;;;;;14.38;8.80;;;;;;;26.10;43.93;101485.09;4989837;28;123479;-64
2023/06/11 06:28:10;;;;;;;12.65;9.20;;;;;;;26.23;43.78;101484.72;4991048;28;123187;-64
2023/06/11 06:30:39;;;;;;;11.57;8.50;;;;;;;26.35;43.60;101483.47;4990098;28;113908;-65
2023/06/11 06:33:07;;;;;;;9.70;8.27;;;;;;;26.49;43.46;101489.34;4991335;28;113417;-65
2023/06/11 06:35:35;;;;;;;13.18;8.82;;;;;;;26.63;43.15;101485.22;4990055;28;123225;-64
2023/06/11 06:38:05;;;;;;;10.32;8.40;;;;;;;26.77;43.12;101479.22;4991459;28;123185;-64
2023/06/11 06:40:34;;;;;;;12.93;8.30;;;;;;;26.91;43.17;101486.75;4991355;28;113475;-64
2023/06/11 06:43:01;;;;;;;9.55;8.20;;;;;;;27.05;42.79;101489.91;4988054;28;114326;-64
2023/06/11 06:45:33;;;;;;;13.10;8.45;;;;;;;27.17;42.60;101488.63;4990025;28;123354;-64
2023/06/11 06:48:05;;;;;;;11.52;8.23;;;;;;;27.29;42.31;101487.34;4990200;28;123026;-64
2023/06/11 06:50:33;;;;;;;9.75;8.10;;;;;;;27.43;42.22;101487.75;4991443;28;113158;-65
2023/06/11 06:53:00;;;;;;;10.75;7.60;;;;;;;27.57;41.80;101489.81;4983605;28;114143;-65
2023/06/11 06:55:27;;;;;;;11.20;7.80;;;;;;;27.69;41.64;101488.50;4971635;28;122964;-65
2023/06/11 06:58:01;;;;;;;9.40;7.57;;;;;;;27.83;41.59;101489.72;4978767;28;122999;-65
2023/06/11 07:00:28;;;;;;;10.45;7.90;;;;;;;27.97;41.58;101485.53;4990821;28;113950;-65
2023/06/11 07:02:56;;;;;;;10.38;8.18;;;;;;;28.13;41.62;101485.56;4990935;28;113961;-65
2023/06/11 07:05:25;;;;;;;10.45;7.80;;;;;;;28.25;41.02;101486.06;4990091;28;123170;-64
2023/06/11 07:07:52;;;;;;;9.10;7.80;;;;;;;28.37;40.62;101489.31;4991461;28;124119;-64
2023/06/11 07:10:20;;;;;;;11.23;8.20;;;;;;;28.47;40.83;101481.81;4988142;28;115431;-64
2023/06/11 07:12:50;;;;;;;9.13;7.47;;;;;;;28.60;41.16;101483.22;4990555;28;114259;-64
2023/06/11 07:15:17;;;;;;;17.45;8.25;;;;;;;28.74;40.41;101487.94;4989379;28;122450;-64
2023/06/11 07:17:44;;;;;;;9.40;7.75;;;;;;;28.87;40.48;101482.78;4990423;28;123056;-65
2023/06/11 07:20:12;;;;;;;9.68;7.88;;;;;;;29.00;40.25;101486.88;4990582;28;112962;-64
2023/06/11 07:22:41;;;;;;;9.63;7.10;;;;;;;29.09;40.22;101491.28;4978269;28;113523;-64
2023/06/11 07:25:09;;;;;;;8.88;7.65;;;;;;;29.23;40.42;101485.09;4989279;28;123869;-64
2023/06/11 07:27:37;;;;;;;9.73;7.55;;;;;;;29.39;39.87;101480.63;4990746;28;123031;-64
2023/06/11 07:30:05;;;;;;;9.13;7.40;;;;;;;29.54;39.42;101484.31;4990595;28;113565;-64
2023/06/11 07:32:33;;;;;;;8.35;6.93;;;;;;;29.66;39.49;101493.78;4988615;28;114459;-64
2023/06/11 07:35:01;;;;;;;7.93;7.10;;;;;;;29.79;38.65;101489.66;4971905;28;123400;-64
2023/06/11 07:37:31;;;;;;;11.23;7.18;;;;;;;29.88;39.03;101488.56;4978488;28;123320;-64
2023/06/11 07:39:59;;;;;;;8.73;7.47;;;;;;;29.97;38.53;101484.75;4988543;28;114343;-65
2023/06/11 07:42:26;;;;;;;9.75;7.10;;;;;;;30.06;38.21;101483.66;4988514;28;113880;-66
2023/06/11 07:44:53;;;;;;;9.48;6.95;;;;;;;30.18;37.90;101480.50;4989131;28;123577;-67
2023/06/11 07:47:20;;;;;;;7.25;6.55;;;;;;;30.24;37.78;101487.97;4989787;28;123622;-65
2023/06/11 07:49:48;;;;;;;6.97;6.18;;;;;;;30.32;37.42;101478.84;4989857;28;113484;-65
2023/06/11 07:52:16;;;;;;;8.95;6.18;;;;;;;30.37;37.05;101482.75;4989800;28;113120;-66
2023/06/11 07:54:44;;;;;;;7.82;6.30;;;;;;;30.41;37.30;101475.88;4961200;28;124156;-66
2023/06/11 07:57:12;;;;;;;7.03;6.35;;;;;;;30.47;36.72;101474.28;4987993;28;124519;-64
2023/06/11 07:59:43;;;;;;;10.00;6.82;;;;;;;30.52;36.76;101476.50;4986424;28;115576;-64
2023/06/11 08:02:11;;;;;;;7.65;6.53;;;;;;;30.59;36.40;101481.03;4988942;28;114949;-64
2023/06/11 08:04:38;;;;;;;9.10;6.68;;;;;;;30.65;36.52;101477.53;4989599;28;124220;-64
2023/06/11 08:07:06;;;;;;;7.57;6.22;;;;;;;30.71;36.47;101475.94;4989187;28;122535;-64
2023/06/11 08:09:37;;;;;;;7.50;6.45;;;;;;;30.79;36.59;101483.22;4987456;28;114904;-65
2023/06/11 08:12:06;;;;;;;7.35;5.90;;;;;;;30.88;36.06;101481.25;4986345;28;114372;-64
2023/06/11 08:14:34;;;;;;;7.32;6.07;;;;;;;30.94;36.28;101483.25;5002071;28;123565;-64
2023/06/11 08:17:02;;;;;;;8.00;6.00;;;;;;;31.00;35.74;101482.50;4987470;28;123938;-64
2023/06/11 08:19:30;;;;;;;6.35;5.63;;;;;;;31.04;36.02;101481.06;4987690;28;114543;-64
2023/06/11 08:22:00;;;;;;;7.40;6.15;;;;;;;31.12;36.09;101482.88;4987482;28;113818;-64
2023/06/11 08:24:27;;;;;;;6.70;5.75;;;;;;;31.21;35.49;101481.72;4988731;28;124371;-64
2023/06/11 08:26:55;;;;;;;9.57;6.40;;;;;;;31.30;35.55;101485.22;4988771;28;123019;-65
2023/06/11 08:29:22;;;;;;;7.35;5.90;;;;;;;31.37;35.17;101469.75;4990141;28;114467;-64
2023/06/11 08:31:50;;;;;;;6.70;5.57;;;;;;;31.43;35.00;101474.44;4988155;28;114335;-64
2023/06/11 08:34:17;;;;;;;5.90;5.30;;;;;;;31.51;35.05;101476.25;4989518;28;124723;-64
2023/06/11 08:36:44;;;;;;;6.95;5.70;;;;;;;31.58;35.31;101478.03;4987026;28;123739;-64
2023/06/11 08:39:11;;;;;;;6.65;5.90;;;;;;;31.69;35.27;101473.09;4987884;28;114289;-65
2023/06/11 08:41:39;;;;;;;6.82;5.57;;;;;;;31.77;35.10;101471.06;4987781;28;113739;-66
2023/06/11 08:44:06;;;;;;;8.23;5.68;;;;;;;31.83;34.49;101474.91;4989227;28;123900;-64
2023/06/11 08:46:35;;;;;;;9.77;5.60;;;;;;;31.88;34.51;101466.13;4986916;28;124026;-65
2023/06/11 08:49:06;;;;;;;8.85;5.43;;;;;;;31.93;34.67;101469.13;4988959;28;114968;-65
2023/06/11 08:51:37;;;;;;;8.57;5.90;;;;;;;32.01;34.46;101466.25;4991278;28;114725;-66
2023/06/11 08:54:09;;;;;;;7.07;5.60;;;;;;;32.11;34.62;101475.03;4986902;28;124431;-66
2023/06/11 08:56:36;;;;;;;7.70;4.97;;;;;;;32.20;34.54;101462.03;4986817;28;123820;-66
2023/06/11 08:59:05;;;;;;;5.60;5.00;;;;;;;32.27;33.79;101471.19;4991457;28;114233;-65
2023/06/11 09:01:33;;;;;;;6.88;4.90;;;;;;;32.31;33.42;101467.00;4991223;28;114919;-66
2023/06/11 09:04:01;;;;;;;5.65;4.93;;;;;;;32.36;33.68;101464.50;4990152;28;124057;-66
2023/06/11 09:06:29;;;;;;;7.97;5.47;;;;;;;32.48;33.13;101469.47;4993599;28;123632;-67
2023/06/11 09:08:58;;;;;;;6.20;5.00;;;;;;;32.55;33.14;101462.09;4990920;28;114341;-67
2023/06/11 09:11:36;;;;;;;5.90;4.80;;;;;;;32.58;32.85;101467.22;4991022;28;114184;-67
2023/06/11 09:14:05;;;;;;;7.47;4.70;;;;;;;32.59;32.51;101457.97;4991226;28;123877;-67
2023/06/11 09:16:42;;;;;;;8.45;4.72;;;;;;;32.61;32.87;101461.34;4982080;28;123915;-67
2023/06/11 09:19:15;;;;;;;6.35;4.80;;;;;;;32.63;32.49;101459.25;4989624;28;114623;-66
2023/06/11 09:21:56;;;;;;;5.65;4.85;;;;;;;32.66;31.86;101453.34;4990666;28;113718;-65
2023/06/11 09:24:24;;;;;;;6.80;4.70;;;;;;;32.67;32.60;101446.00;4996841;28;123375;-66
2023/06/11 09:26:56;;;;;;;6.03;4.53;;;;;;;32.69;32.02;101458.44;4975926;28;122658;-65
2023/06/11 09:29:25;;;;;;;7.65;4.80;;;;;;;32.72;32.08;101452.56;4990841;28;114339;-66
2023/06/11 09:32:06;;;;;;;5.20;4.75;;;;;;;32.75;32.01;101457.63;4988608;28;114039;-66
2023/06/11 09:34:56;;;;;;;6.30;4.90;;;;;;;32.81;32.27;101460.63;4992615;28;124324;-67
2023/06/11 09:37:24;;;;;;;5.93;4.40;;;;;;;32.88;32.51;101450.56;4992546;28;122819;-67
2023/06/11 09:39:51;;;;;;;7.32;4.70;;;;;;;32.94;31.58;101452.47;4989933;28;115090;-66
2023/06/11 09:42:24;;;;;;;7.55;4.50;;;;;;;32.96;31.86;101455.88;4990253;28;115006;-67
2023/06/11 09:44:51;;;;;;;6.28;4.93;;;;;;;33.00;31.80;101448.91;4991908;28;124089;-67
2023/06/11 09:47:19;;;;;;;5.68;5.05;;;;;;;33.11;32.17;101445.63;4990057;28;124303;-67
2023/06/11 09:49:46;;;;;;;9.15;5.07;;;;;;;33.23;31.87;101447.78;4991956;28;114638;-67
2023/06/11 09:52:14;;;;;;;5.47;4.70;;;;;;;33.33;30.98;101456.50;4992818;28;113667;-67
2023/06/11 09:54:47;;;;;;;5.53;4.72;;;;;;;33.38;31.02;101451.25;4991283;28;124578;-67
2023/06/11 09:57:16;;;;;;;5.50;4.90;;;;;;;33.41;31.25;101445.31;4990942;28;123956;-67
2023/06/11 09:59:45;;;;;;;9.30;4.80;;;;;;;33.41;30.76;101456.31;4989775;28;116508;-67
2023/06/11 10:02:13;;;;;;;7.82;6.25;;;;;;;33.41;31.48;101450.81;4989530;28;114180;-67
2023/06/11 10:04:41;;;;;;;8.20;5.10;;;;;;;33.45;31.79;101443.84;4990666;28;124266;-67
2023/06/11 10:07:10;;;;;;;7.85;5.00;;;;;;;33.48;31.73;101451.69;4992242;28;124019;-66
2023/06/11 10:09:40;;;;;;;5.88;5.28;;;;;;;33.54;31.22;101456.34;4974132;28;113595;-68
2023/06/11 10:12:08;;;;;;;6.75;5.20;;;;;;;33.60;30.96;101453.84;4990206;28;114623;-66
2023/06/11 10:14:36;;;;;;;7.00;4.55;;;;;;;33.65;30.83;101456.84;4990811;28;124752;-65
2023/06/11 10:17:08;;;;;;;6.90;5.00;;;;;;;33.67;30.75;101465.72;4990337;28;124191;-66
2023/06/11 10:19:36;;;;;;;5.15;4.13;;;;;;;33.77;30.98;101460.69;4988815;28;115114;-66
2023/06/11 10:22:03;;;;;;;6.25;4.40;;;;;;;33.87;30.80;101469.38;4978562;28;114128;-66
2023/06/11 10:24:31;;;;;;;5.47;4.00;;;;;;;33.94;29.68;101459.25;4990286;28;124602;-66
2023/06/11 10:27:07;;;;;;;4.18;3.78;;;;;;;33.95;28.76;101462.84;4977235;28;123773;-68
2023/06/11 10:29:47;;;;;;;4.40;3.80;;;;;;;33.86;28.54;101459.44;4987986;28;115133;-68
2023/06/11 10:32:19;;;;;;;3.50;2.95;;;;;;;33.85;28.79;101457.75;4982613;28;113914;-67
2023/06/11 10:34:55;;;;;;;4.00;2.90;;;;;;;33.84;27.95;101466.19;4987437;28;124127;-67
2023/06/11 10:37:36;;;;;;;5.32;3.30;;;;;;;33.80;28.07;101460.28;4990880;28;122720;-67
2023/06/11 10:40:05;;;;;;;4.82;3.47;;;;;;;33.78;27.71;101451.38;4989232;28;113673;-66
2023/06/11 10:42:38;;;;;;;7.47;3.45;;;;;;;33.78;27.79;101462.38;4988310;28;114150;-66
2023/06/11 10:45:10;;;;;;;6.32;3.90;;;;;;;33.80;28.07;101460.28;4988563;28;124773;-66
2023/06/11 10:47:49;;;;;;;3.88;3.38;;;;;;;33.84;28.55;101456.03;4989094;28;123660;-65
2023/06/11 10:50:25;;;;;;;8.05;3.55;;;;;;;33.91;29.36;101456.06;4991270;28;113756;-66
2023/06/11 10:53:02;;;;;;;6.53;3.70;;;;;;;33.96;28.02;101449.94;4983294;28;114557;-66
2023/06/11 10:55:32;;;;;;;4.70;3.78;;;;;;;33.97;28.30;101448.88;4986315;28;124761;-65
2023/06/11 10:58:00;;;;;;;7.25;3.45;;;;;;;33.99;28.29;101452.28;4988053;28;123938;-66
2023/06/11 11:00:32;;;;;;;5.30;3.53;;;;;;;34.02;28.77;101447.19;4989319;28;114322;-67
2023/06/11 11:03:03;;;;;;;7.65;3.75;;;;;;;34.07;28.82;101449.31;4991497;28;114781;-67
2023/06/11 11:05:31;;;;;;;4.15;3.75;;;;;;;34.10;28.64;101443.41;4985483;28;124203;-67
2023/06/11 11:08:01;;;;;;;4.65;4.00;;;;;;;34.11;28.43;101445.06;4984227;28;122968;-67
2023/06/11 11:10:29;;;;;;;3.92;3.53;;;;;;;34.14;28.16;101455.66;4984812;28;114940;-68
2023/06/11 11:12:56;;;;;;;9.52;4.13;;;;;;;34.12;27.91;101452.28;4981662;28;114287;-66
2023/06/11 11:15:24;;;;;;;5.13;4.00;;;;;;;34.07;27.93;101446.56;4986243;28;123909;-67
2023/06/11 11:17:51;;;;;;;4.85;3.80;;;;;;;34.07;28.72;101443.81;4984626;28;123133;-65
2023/06/11 11:20:19;;;;;;;7.50;3.50;;;;;;;34.11;27.72;101439.56;4989069;28;115393;-65